Contoocook, New Hampshire
Current Conditions -  °F | °C
As of 3:51 PM on Sunday 23 Nov 2014 (Local Time) from KCON Reporting Station
Clear Clear  
Wind Chill: 51°   Ceiling: Unl
Heat Index: 51°   Visibility: 10mi
Dew Point: 39°   Wind: 0mph
Humidity: 63%   Direction: NA
Pressure: 30.08"   Gusts: NA
Location:  43.22°N, 71.71°W
Report Text: KCON 232051Z AUTO 00000KT 10SM CLR 11/04 A3008 RMK AO2 SLP190 T01060039 51002
Loading
Personal Weather Stations






























Interactive Weather Map New forecast layout! Learn more

10-Day Weather Forecast

Advertisements
Track Severe Weather on mobile